sensor_id;sensor_type;location;lat;lon;timestamp;temperature;humidity
59660;DHT22;45534;52.690;6.268;2023-05-14T00:00:54;11.50;99.90
59660;DHT22;45534;52.690;6.268;2023-05-14T00:03:20;11.40;99.90
59660;DHT22;45534;52.690;6.268;2023-05-14T00:05:46;11.40;99.90
59660;DHT22;45534;52.690;6.268;2023-05-14T00:08:12;11.50;99.90
59660;DHT22;45534;52.690;6.268;2023-05-14T00:10:38;11.50;99.90
59660;DHT22;45534;52.690;6.268;2023-05-14T00:13:03;11.40;99.90
59660;DHT22;45534;52.690;6.268;2023-05-14T00:15:29;11.40;99.90
59660;DHT22;45534;52.690;6.268;2023-05-14T00:17:55;11.40;99.90
59660;DHT22;45534;52.690;6.268;2023-05-14T00:20:21;11.40;99.90
59660;DHT22;45534;52.690;6.268;2023-05-14T00:22:46;11.30;99.90
59660;DHT22;45534;52.690;6.268;2023-05-14T00:25:12;11.30;99.90
59660;DHT22;45534;52.690;6.268;2023-05-14T00:27:37;11.30;99.90
59660;DHT22;45534;52.690;6.268;2023-05-14T00:30:04;11.30;99.90
59660;DHT22;45534;52.690;6.268;2023-05-14T00:32:33;11.30;99.90
59660;DHT22;45534;52.690;6.268;2023-05-14T00:34:59;11.30;99.90
59660;DHT22;45534;52.690;6.268;2023-05-14T00:37:25;11.20;99.90
59660;DHT22;45534;52.690;6.268;2023-05-14T00:39:50;11.20;99.90
59660;DHT22;45534;52.690;6.268;2023-05-14T00:42:16;11.20;99.90
59660;DHT22;45534;52.690;6.268;2023-05-14T00:44:42;11.20;99.90
59660;DHT22;45534;52.690;6.268;2023-05-14T00:47:07;11.10;99.90
59660;DHT22;45534;52.690;6.268;2023-05-14T00:49:34;11.10;99.90
59660;DHT22;45534;52.690;6.268;2023-05-14T00:52:00;11.10;99.90
59660;DHT22;45534;52.690;6.268;2023-05-14T00:54:26;11.10;99.90
59660;DHT22;45534;52.690;6.268;2023-05-14T00:56:53;11.10;99.90
59660;DHT22;45534;52.690;6.268;2023-05-14T00:59:19;11.10;99.90
59660;DHT22;45534;52.690;6.268;2023-05-14T01:01:45;11.10;99.90
59660;DHT22;45534;52.690;6.268;2023-05-14T01:04:11;11.00;99.90
59660;DHT22;45534;52.690;6.268;2023-05-14T01:12:32;11.00;99.90
59660;DHT22;45534;52.690;6.268;2023-05-14T01:17:40;10.80;99.90
59660;DHT22;45534;52.690;6.268;2023-05-14T01:20:08;10.80;99.90
59660;DHT22;45534;52.690;6.268;2023-05-14T01:22:34;10.70;99.90
59660;DHT22;45534;52.690;6.268;2023-05-14T01:24:59;10.70;99.90
59660;DHT22;45534;52.690;6.268;2023-05-14T01:27:37;10.60;99.90
59660;DHT22;45534;52.690;6.268;2023-05-14T01:32:57;10.50;99.90
59660;DHT22;45534;52.690;6.268;2023-05-14T01:35:28;10.50;99.90
59660;DHT22;45534;52.690;6.268;2023-05-14T01:37:56;10.50;99.90
59660;DHT22;45534;52.690;6.268;2023-05-14T01:40:24;10.40;99.90
59660;DHT22;45534;52.690;6.268;2023-05-14T01:42:51;10.40;99.90
59660;DHT22;45534;52.690;6.268;2023-05-14T01:45:19;10.40;99.90
59660;DHT22;45534;52.690;6.268;2023-05-14T01:47:45;10.40;99.90
59660;DHT22;45534;52.690;6.268;2023-05-14T01:50:11;10.40;99.90
59660;DHT22;45534;52.690;6.268;2023-05-14T01:52:37;10.40;99.90
59660;DHT22;45534;52.690;6.268;2023-05-14T01:55:03;10.40;99.90
59660;DHT22;45534;52.690;6.268;2023-05-14T01:57:30;10.40;99.90
59660;DHT22;45534;52.690;6.268;2023-05-14T01:59:55;10.40;99.90
59660;DHT22;45534;52.690;6.268;2023-05-14T02:02:21;10.30;99.90
59660;DHT22;45534;52.690;6.268;2023-05-14T02:04:47;10.30;99.90
59660;DHT22;45534;52.690;6.268;2023-05-14T02:07:13;10.20;99.90
59660;DHT22;45534;52.690;6.268;2023-05-14T02:09:39;10.20;99.90
59660;DHT22;45534;52.690;6.268;2023-05-14T02:12:06;10.20;99.90
59660;DHT22;45534;52.690;6.268;2023-05-14T02:14:32;10.20;99.90
59660;DHT22;45534;52.690;6.268;2023-05-14T02:16:58;10.20;99.90
59660;DHT22;45534;52.690;6.268;2023-05-14T02:19:24;10.20;99.90
59660;DHT22;45534;52.690;6.268;2023-05-14T02:21:49;10.20;99.90
59660;DHT22;45534;52.690;6.268;2023-05-14T02:24:15;10.20;99.90
59660;DHT22;45534;52.690;6.268;2023-05-14T02:26:41;10.20;99.90
59660;DHT22;45534;52.690;6.268;2023-05-14T02:29:07;10.10;99.90
59660;DHT22;45534;52.690;6.268;2023-05-14T02:31:33;10.10;99.90
59660;DHT22;45534;52.690;6.268;2023-05-14T02:34:00;10.10;99.90
59660;DHT22;45534;52.690;6.268;2023-05-14T02:36:26;10.10;99.90
59660;DHT22;45534;52.690;6.268;2023-05-14T02:38:52;10.10;99.90
59660;DHT22;45534;52.690;6.268;2023-05-14T02:41:17;10.10;99.90
59660;DHT22;45534;52.690;6.268;2023-05-14T02:43:43;10.10;99.90
59660;DHT22;45534;52.690;6.268;2023-05-14T02:46:09;10.10;99.90
59660;DHT22;45534;52.690;6.268;2023-05-14T02:48:35;10.10;99.90
59660;DHT22;45534;52.690;6.268;2023-05-14T02:51:01;10.10;99.90
59660;DHT22;45534;52.690;6.268;2023-05-14T02:53:27;10.10;99.90
59660;DHT22;45534;52.690;6.268;2023-05-14T02:55:52;10.10;99.90
59660;DHT22;45534;52.690;6.268;2023-05-14T02:58:18;10.00;99.90
59660;DHT22;45534;52.690;6.268;2023-05-14T03:00:44;10.00;99.90
59660;DHT22;45534;52.690;6.268;2023-05-14T03:03:09;10.00;99.90
59660;DHT22;45534;52.690;6.268;2023-05-14T03:05:35;10.00;99.90
59660;DHT22;45534;52.690;6.268;2023-05-14T03:08:01;9.90;99.90
59660;DHT22;45534;52.690;6.268;2023-05-14T03:10:26;9.90;99.90
59660;DHT22;45534;52.690;6.268;2023-05-14T03:12:52;9.80;99.90
59660;DHT22;45534;52.690;6.268;2023-05-14T03:15:18;9.80;99.90
59660;DHT22;45534;52.690;6.268;2023-05-14T03:17:44;9.80;99.90
59660;DHT22;45534;52.690;6.268;2023-05-14T03:20:11;9.80;99.90
59660;DHT22;45534;52.690;6.268;2023-05-14T03:22:36;9.80;99.90
59660;DHT22;45534;52.690;6.268;2023-05-14T03:25:02;9.70;99.90
59660;DHT22;45534;52.690;6.268;2023-05-14T03:27:28;9.70;99.90
59660;DHT22;45534;52.690;6.268;2023-05-14T03:29:54;9.70;99.90
59660;DHT22;45534;52.690;6.268;2023-05-14T03:32:19;9.70;99.90
59660;DHT22;45534;52.690;6.268;2023-05-14T03:34:45;9.70;99.90
59660;DHT22;45534;52.690;6.268;2023-05-14T03:37:11;9.70;99.90
59660;DHT22;45534;52.690;6.268;2023-05-14T03:39:37;9.70;99.90
59660;DHT22;45534;52.690;6.268;2023-05-14T03:42:03;9.70;99.90
59660;DHT22;45534;52.690;6.268;2023-05-14T03:44:28;9.60;99.90
59660;DHT22;45534;52.690;6.268;2023-05-14T03:46:54;9.60;99.90
59660;DHT22;45534;52.690;6.268;2023-05-14T03:49:20;9.70;99.90
59660;DHT22;45534;52.690;6.268;2023-05-14T03:51:46;9.70;99.90
59660;DHT22;45534;52.690;6.268;2023-05-14T03:54:11;9.70;99.90
59660;DHT22;45534;52.690;6.268;2023-05-14T03:56:37;9.70;99.90
59660;DHT22;45534;52.690;6.268;2023-05-14T03:59:03;9.70;99.90
59660;DHT22;45534;52.690;6.268;2023-05-14T04:01:28;9.70;99.90
59660;DHT22;45534;52.690;6.268;2023-05-14T04:03:54;9.70;99.90
59660;DHT22;45534;52.690;6.268;2023-05-14T04:06:20;9.70;99.90
59660;DHT22;45534;52.690;6.268;2023-05-14T04:08:45;9.70;99.90
59660;DHT22;45534;52.690;6.268;2023-05-14T04:11:11;9.70;99.90
59660;DHT22;45534;52.690;6.268;2023-05-14T04:13:37;9.60;99.90
59660;DHT22;45534;52.690;6.268;2023-05-14T04:16:02;9.70;99.90
59660;DHT22;45534;52.690;6.268;2023-05-14T04:18:28;9.60;99.90
59660;DHT22;45534;52.690;6.268;2023-05-14T04:20:54;9.60;99.90
59660;DHT22;45534;52.690;6.268;2023-05-14T04:23:20;9.70;99.90
59660;DHT22;45534;52.690;6.268;2023-05-14T04:25:46;9.70;99.90
59660;DHT22;45534;52.690;6.268;2023-05-14T04:28:12;9.70;99.90
59660;DHT22;45534;52.690;6.268;2023-05-14T04:30:37;9.70;99.90
59660;DHT22;45534;52.690;6.268;2023-05-14T04:33:03;9.70;99.90
59660;DHT22;45534;52.690;6.268;2023-05-14T04:35:29;9.70;99.90
59660;DHT22;45534;52.690;6.268;2023-05-14T04:37:54;9.80;99.90
59660;DHT22;45534;52.690;6.268;2023-05-14T04:40:21;9.80;99.90
59660;DHT22;45534;52.690;6.268;2023-05-14T04:42:47;9.80;99.90
59660;DHT22;45534;52.690;6.268;2023-05-14T04:45:13;9.90;99.90
59660;DHT22;45534;52.690;6.268;2023-05-14T04:47:39;9.90;99.90
59660;DHT22;45534;52.690;6.268;2023-05-14T04:50:05;9.90;99.90
59660;DHT22;45534;52.690;6.268;2023-05-14T04:52:32;9.90;99.90
59660;DHT22;45534;52.690;6.268;2023-05-14T04:54:57;10.00;99.90
59660;DHT22;45534;52.690;6.268;2023-05-14T04:57:23;10.00;99.90
59660;DHT22;45534;52.690;6.268;2023-05-14T04:59:49;10.00;99.90
59660;DHT22;45534;52.690;6.268;2023-05-14T05:02:14;10.10;99.90
59660;DHT22;45534;52.690;6.268;2023-05-14T05:04:40;10.10;99.90
59660;DHT22;45534;52.690;6.268;2023-05-14T05:07:06;10.10;99.90
59660;DHT22;45534;52.690;6.268;2023-05-14T05:09:31;10.20;99.90
59660;DHT22;45534;52.690;6.268;2023-05-14T05:11:57;10.20;99.90
59660;DHT22;45534;52.690;6.268;2023-05-14T05:14:23;10.30;99.90
59660;DHT22;45534;52.690;6.268;2023-05-14T05:16:50;10.30;99.90
59660;DHT22;45534;52.690;6.268;2023-05-14T05:19:15;10.30;99.90
59660;DHT22;45534;52.690;6.268;2023-05-14T05:21:41;10.40;99.90
59660;DHT22;45534;52.690;6.268;2023-05-14T05:24:07;10.50;99.90
59660;DHT22;45534;52.690;6.268;2023-05-14T05:26:33;10.60;99.90
59660;DHT22;45534;52.690;6.268;2023-05-14T05:29:04;10.60;99.90
59660;DHT22;45534;52.690;6.268;2023-05-14T05:31:30;10.70;99.90
59660;DHT22;45534;52.690;6.268;2023-05-14T05:33:58;10.70;99.90
59660;DHT22;45534;52.690;6.268;2023-05-14T05:36:24;10.80;99.90
59660;DHT22;45534;52.690;6.268;2023-05-14T05:38:49;10.80;99.90
59660;DHT22;45534;52.690;6.268;2023-05-14T05:41:15;10.80;99.90
59660;DHT22;45534;52.690;6.268;2023-05-14T05:43:41;10.80;99.90
59660;DHT22;45534;52.690;6.268;2023-05-14T05:46:07;10.80;99.90
59660;DHT22;45534;52.690;6.268;2023-05-14T05:48:32;10.90;99.90
59660;DHT22;45534;52.690;6.268;2023-05-14T05:50:58;10.90;99.90
59660;DHT22;45534;52.690;6.268;2023-05-14T05:53:24;10.90;99.90
59660;DHT22;45534;52.690;6.268;2023-05-14T05:55:50;11.00;99.90
59660;DHT22;45534;52.690;6.268;2023-05-14T05:58:18;11.00;99.90
59660;DHT22;45534;52.690;6.268;2023-05-14T06:00:44;11.00;99.90
59660;DHT22;45534;52.690;6.268;2023-05-14T06:03:11;11.00;99.90
59660;DHT22;45534;52.690;6.268;2023-05-14T06:05:36;11.00;99.90
59660;DHT22;45534;52.690;6.268;2023-05-14T06:08:02;11.00;99.90
59660;DHT22;45534;52.690;6.268;2023-05-14T06:10:28;11.10;99.90
59660;DHT22;45534;52.690;6.268;2023-05-14T06:12:54;11.10;99.90
59660;DHT22;45534;52.690;6.268;2023-05-14T06:15:20;11.20;99.90
59660;DHT22;45534;52.690;6.268;2023-05-14T06:17:46;11.30;99.90
59660;DHT22;45534;52.690;6.268;2023-05-14T06:20:11;11.30;99.90
59660;DHT22;45534;52.690;6.268;2023-05-14T06:22:37;11.30;99.90
59660;DHT22;45534;52.690;6.268;2023-05-14T06:25:03;11.40;99.90
59660;DHT22;45534;52.690;6.268;2023-05-14T06:27:29;11.50;99.90
59660;DHT22;45534;52.690;6.268;2023-05-14T06:29:55;11.50;99.90
59660;DHT22;45534;52.690;6.268;2023-05-14T06:32:20;11.50;99.90
59660;DHT22;45534;52.690;6.268;2023-05-14T06:34:46;11.50;99.90
59660;DHT22;45534;52.690;6.268;2023-05-14T06:37:12;11.60;99.90
59660;DHT22;45534;52.690;6.268;2023-05-14T06:39:38;11.70;99.90
59660;DHT22;45534;52.690;6.268;2023-05-14T06:42:04;11.70;99.90
59660;DHT22;45534;52.690;6.268;2023-05-14T06:44:31;11.70;99.90
59660;DHT22;45534;52.690;6.268;2023-05-14T06:46:56;11.80;99.90
59660;DHT22;45534;52.690;6.268;2023-05-14T06:49:22;11.90;99.90
59660;DHT22;45534;52.690;6.268;2023-05-14T06:51:48;12.00;99.90
59660;DHT22;45534;52.690;6.268;2023-05-14T06:54:14;12.00;99.90
59660;DHT22;45534;52.690;6.268;2023-05-14T06:56:39;12.10;99.90
59660;DHT22;45534;52.690;6.268;2023-05-14T06:59:05;12.20;99.90
59660;DHT22;45534;52.690;6.268;2023-05-14T07:01:31;12.30;99.90
59660;DHT22;45534;52.690;6.268;2023-05-14T07:03:56;12.40;99.90
59660;DHT22;45534;52.690;6.268;2023-05-14T07:06:22;12.50;99.90
59660;DHT22;45534;52.690;6.268;2023-05-14T07:08:48;12.60;99.90
59660;DHT22;45534;52.690;6.268;2023-05-14T07:11:14;12.70;99.90
59660;DHT22;45534;52.690;6.268;2023-05-14T07:13:40;12.80;99.90
59660;DHT22;45534;52.690;6.268;2023-05-14T07:16:06;12.90;99.90
59660;DHT22;45534;52.690;6.268;2023-05-14T07:18:34;13.00;99.90
59660;DHT22;45534;52.690;6.268;2023-05-14T07:21:00;13.10;99.90
59660;DHT22;45534;52.690;6.268;2023-05-14T07:23:26;13.20;99.90
59660;DHT22;45534;52.690;6.268;2023-05-14T07:25:51;13.30;99.90
59660;DHT22;45534;52.690;6.268;2023-05-14T07:28:17;13.40;99.90
59660;DHT22;45534;52.690;6.268;2023-05-14T07:30:43;13.50;99.90
59660;DHT22;45534;52.690;6.268;2023-05-14T07:33:08;13.60;99.90
59660;DHT22;45534;52.690;6.268;2023-05-14T07:35:34;13.70;99.90
59660;DHT22;45534;52.690;6.268;2023-05-14T07:38:00;13.80;99.90
59660;DHT22;45534;52.690;6.268;2023-05-14T07:40:25;13.90;99.90
59660;DHT22;45534;52.690;6.268;2023-05-14T07:42:51;14.00;99.90
59660;DHT22;45534;52.690;6.268;2023-05-14T07:45:17;13.90;99.90
59660;DHT22;45534;52.690;6.268;2023-05-14T07:47:43;14.00;99.90
59660;DHT22;45534;52.690;6.268;2023-05-14T07:50:09;14.10;99.90
59660;DHT22;45534;52.690;6.268;2023-05-14T07:52:35;14.20;99.90
59660;DHT22;45534;52.690;6.268;2023-05-14T07:55:02;14.20;99.90
59660;DHT22;45534;52.690;6.268;2023-05-14T07:57:28;14.30;99.90
59660;DHT22;45534;52.690;6.268;2023-05-14T07:59:55;14.30;99.90
59660;DHT22;45534;52.690;6.268;2023-05-14T08:02:20;14.30;99.90
59660;DHT22;45534;52.690;6.268;2023-05-14T08:04:46;14.30;99.90
59660;DHT22;45534;52.690;6.268;2023-05-14T08:07:12;14.40;99.90
59660;DHT22;45534;52.690;6.268;2023-05-14T08:09:38;14.50;99.90
59660;DHT22;45534;52.690;6.268;2023-05-14T08:12:03;14.60;99.90
59660;DHT22;45534;52.690;6.268;2023-05-14T08:14:29;14.70;99.90
59660;DHT22;45534;52.690;6.268;2023-05-14T08:16:55;14.80;99.90
59660;DHT22;45534;52.690;6.268;2023-05-14T08:19:22;14.80;99.90
59660;DHT22;45534;52.690;6.268;2023-05-14T08:21:49;14.90;99.90
59660;DHT22;45534;52.690;6.268;2023-05-14T08:24:15;15.10;99.90
59660;DHT22;45534;52.690;6.268;2023-05-14T08:26:40;15.30;99.90
59660;DHT22;45534;52.690;6.268;2023-05-14T08:29:06;15.50;99.90
59660;DHT22;45534;52.690;6.268;2023-05-14T08:31:32;15.70;99.90
59660;DHT22;45534;52.690;6.268;2023-05-14T08:33:57;15.80;99.90
59660;DHT22;45534;52.690;6.268;2023-05-14T08:36:23;16.00;99.90
59660;DHT22;45534;52.690;6.268;2023-05-14T08:38:49;16.20;99.90
59660;DHT22;45534;52.690;6.268;2023-05-14T08:41:15;16.40;99.90
59660;DHT22;45534;52.690;6.268;2023-05-14T08:44:00;16.60;99.90
59660;DHT22;45534;52.690;6.268;2023-05-14T08:46:29;16.50;99.90
59660;DHT22;45534;52.690;6.268;2023-05-14T08:49:53;16.70;99.90
59660;DHT22;45534;52.690;6.268;2023-05-14T08:51:53;16.70;99.90
59660;DHT22;45534;52.690;6.268;2023-05-14T08:54:19;16.80;99.90
59660;DHT22;45534;52.690;6.268;2023-05-14T08:56:50;16.90;99.90
59660;DHT22;45534;52.690;6.268;2023-05-14T08:59:16;16.90;99.90
59660;DHT22;45534;52.690;6.268;2023-05-14T09:01:48;16.90;99.90
59660;DHT22;45534;52.690;6.268;2023-05-14T09:04:19;17.10;99.90
59660;DHT22;45534;52.690;6.268;2023-05-14T09:06:50;17.10;99.90
59660;DHT22;45534;52.690;6.268;2023-05-14T09:09:17;17.20;99.90
59660;DHT22;45534;52.690;6.268;2023-05-14T09:11:47;17.30;99.90
59660;DHT22;45534;52.690;6.268;2023-05-14T09:14:13;17.50;99.90
59660;DHT22;45534;52.690;6.268;2023-05-14T09:16:39;17.60;99.90
59660;DHT22;45534;52.690;6.268;2023-05-14T09:19:07;17.70;99.90
59660;DHT22;45534;52.690;6.268;2023-05-14T09:21:33;17.80;99.90
59660;DHT22;45534;52.690;6.268;2023-05-14T09:23:59;17.90;99.90
59660;DHT22;45534;52.690;6.268;2023-05-14T09:26:26;18.10;99.90
59660;DHT22;45534;52.690;6.268;2023-05-14T09:28:57;18.20;99.90
59660;DHT22;45534;52.690;6.268;2023-05-14T09:31:28;18.40;99.90
59660;DHT22;45534;52.690;6.268;2023-05-14T09:33:54;18.50;99.90
59660;DHT22;45534;52.690;6.268;2023-05-14T09:36:19;18.60;99.90
59660;DHT22;45534;52.690;6.268;2023-05-14T09:38:45;18.60;99.90
59660;DHT22;45534;52.690;6.268;2023-05-14T09:41:11;18.50;99.90
59660;DHT22;45534;52.690;6.268;2023-05-14T09:43:37;18.70;99.90
59660;DHT22;45534;52.690;6.268;2023-05-14T09:46:02;18.70;99.90
59660;DHT22;45534;52.690;6.268;2023-05-14T09:48:28;18.70;99.90
59660;DHT22;45534;52.690;6.268;2023-05-14T09:50:54;18.80;99.90
59660;DHT22;45534;52.690;6.268;2023-05-14T09:53:20;18.90;99.90
59660;DHT22;45534;52.690;6.268;2023-05-14T09:55:46;18.90;99.90
59660;DHT22;45534;52.690;6.268;2023-05-14T09:58:12;19.10;99.90
59660;DHT22;45534;52.690;6.268;2023-05-14T10:00:44;19.20;99.90
59660;DHT22;45534;52.690;6.268;2023-05-14T10:03:13;19.30;99.90
59660;DHT22;45534;52.690;6.268;2023-05-14T10:05:40;19.30;99.90
59660;DHT22;45534;52.690;6.268;2023-05-14T10:08:32;19.30;99.90
59660;DHT22;45534;52.690;6.268;2023-05-14T10:10:57;19.50;99.90
59660;DHT22;45534;52.690;6.268;2023-05-14T10:13:32;19.60;99.90
59660;DHT22;45534;52.690;6.268;2023-05-14T10:18:45;19.70;99.90
59660;DHT22;45534;52.690;6.268;2023-05-14T10:21:14;19.70;99.90
59660;DHT22;45534;52.690;6.268;2023-05-14T10:23:41;20.00;99.90
59660;DHT22;45534;52.690;6.268;2023-05-14T10:26:11;20.30;99.90
59660;DHT22;45534;52.690;6.268;2023-05-14T10:28:37;20.50;99.90
59660;DHT22;45534;52.690;6.268;2023-05-14T10:31:03;20.50;99.90
59660;DHT22;45534;52.690;6.268;2023-05-14T10:33:29;20.50;99.90
59660;DHT22;45534;52.690;6.268;2023-05-14T10:38:29;20.90;99.90
59660;DHT22;45534;52.690;6.268;2023-05-14T10:41:01;21.10;99.90
59660;DHT22;45534;52.690;6.268;2023-05-14T10:43:28;21.10;99.90
59660;DHT22;45534;52.690;6.268;2023-05-14T10:45:55;21.20;99.90
59660;DHT22;45534;52.690;6.268;2023-05-14T10:48:22;21.30;99.90
59660;DHT22;45534;52.690;6.268;2023-05-14T10:50:50;21.50;99.90
59660;DHT22;45534;52.690;6.268;2023-05-14T10:53:16;21.70;99.90
59660;DHT22;45534;52.690;6.268;2023-05-14T10:55:43;21.90;99.90
59660;DHT22;45534;52.690;6.268;2023-05-14T10:58:09;21.70;99.90
59660;DHT22;45534;52.690;6.268;2023-05-14T11:00:36;21.70;99.50
59660;DHT22;45534;52.690;6.268;2023-05-14T11:03:04;21.80;99.90
59660;DHT22;45534;52.690;6.268;2023-05-14T11:05:31;21.90;98.50
59660;DHT22;45534;52.690;6.268;2023-05-14T11:07:57;21.90;99.00
59660;DHT22;45534;52.690;6.268;2023-05-14T11:10:24;21.90;99.30
59660;DHT22;45534;52.690;6.268;2023-05-14T11:12:55;21.90;97.70
59660;DHT22;45534;52.690;6.268;2023-05-14T11:15:24;22.00;98.20
59660;DHT22;45534;52.690;6.268;2023-05-14T11:17:56;22.10;97.20
59660;DHT22;45534;52.690;6.268;2023-05-14T11:20:21;22.30;95.40
59660;DHT22;45534;52.690;6.268;2023-05-14T11:22:48;22.40;95.70
59660;DHT22;45534;52.690;6.268;2023-05-14T11:25:16;22.60;92.90
59660;DHT22;45534;52.690;6.268;2023-05-14T11:27:44;22.40;92.50
59660;DHT22;45534;52.690;6.268;2023-05-14T11:30:17;22.30;91.50
59660;DHT22;45534;52.690;6.268;2023-05-14T11:32:47;22.40;93.00
59660;DHT22;45534;52.690;6.268;2023-05-14T11:35:13;22.80;94.10
59660;DHT22;45534;52.690;6.268;2023-05-14T11:37:40;23.00;95.30
59660;DHT22;45534;52.690;6.268;2023-05-14T11:40:08;23.10;93.60
59660;DHT22;45534;52.690;6.268;2023-05-14T11:42:37;22.80;88.40
59660;DHT22;45534;52.690;6.268;2023-05-14T11:45:03;22.70;85.00
59660;DHT22;45534;52.690;6.268;2023-05-14T11:47:29;22.60;86.60
59660;DHT22;45534;52.690;6.268;2023-05-14T11:49:56;22.60;91.40
59660;DHT22;45534;52.690;6.268;2023-05-14T11:52:21;22.50;90.40
59660;DHT22;45534;52.690;6.268;2023-05-14T11:54:47;22.50;91.40
59660;DHT22;45534;52.690;6.268;2023-05-14T11:57:18;22.50;90.10
59660;DHT22;45534;52.690;6.268;2023-05-14T11:59:44;22.60;89.50
59660;DHT22;45534;52.690;6.268;2023-05-14T12:02:17;22.70;91.70
59660;DHT22;45534;52.690;6.268;2023-05-14T12:04:45;22.80;90.10
59660;DHT22;45534;52.690;6.268;2023-05-14T12:07:14;23.00;86.50
59660;DHT22;45534;52.690;6.268;2023-05-14T12:09:43;23.30;88.00
59660;DHT22;45534;52.690;6.268;2023-05-14T12:12:15;23.50;83.80
59660;DHT22;45534;52.690;6.268;2023-05-14T12:14:41;23.30;80.70
59660;DHT22;45534;52.690;6.268;2023-05-14T12:17:18;23.10;83.90
59660;DHT22;45534;52.690;6.268;2023-05-14T12:19:46;23.00;81.60
59660;DHT22;45534;52.690;6.268;2023-05-14T12:22:20;22.90;83.90
59660;DHT22;45534;52.690;6.268;2023-05-14T12:24:56;23.20;87.30
59660;DHT22;45534;52.690;6.268;2023-05-14T12:27:22;23.60;88.40
59660;DHT22;45534;52.690;6.268;2023-05-14T12:29:50;23.80;83.30
59660;DHT22;45534;52.690;6.268;2023-05-14T12:32:24;23.90;84.50
59660;DHT22;45534;52.690;6.268;2023-05-14T12:34:50;23.60;77.60
59660;DHT22;45534;52.690;6.268;2023-05-14T12:37:16;23.40;79.30
59660;DHT22;45534;52.690;6.268;2023-05-14T12:39:43;23.60;78.80
59660;DHT22;45534;52.690;6.268;2023-05-14T12:42:08;23.80;76.20
59660;DHT22;45534;52.690;6.268;2023-05-14T12:44:34;23.90;75.80
59660;DHT22;45534;52.690;6.268;2023-05-14T12:47:00;24.00;75.20
59660;DHT22;45534;52.690;6.268;2023-05-14T12:49:26;24.10;73.50
59660;DHT22;45534;52.690;6.268;2023-05-14T12:51:52;24.10;74.90
59660;DHT22;45534;52.690;6.268;2023-05-14T12:54:17;24.30;76.50
59660;DHT22;45534;52.690;6.268;2023-05-14T12:56:43;24.50;73.80
59660;DHT22;45534;52.690;6.268;2023-05-14T12:59:09;24.60;71.40
59660;DHT22;45534;52.690;6.268;2023-05-14T13:01:35;24.40;68.80
59660;DHT22;45534;52.690;6.268;2023-05-14T13:04:03;24.00;67.90
59660;DHT22;45534;52.690;6.268;2023-05-14T13:06:29;23.80;71.00
59660;DHT22;45534;52.690;6.268;2023-05-14T13:08:56;23.70;70.20
59660;DHT22;45534;52.690;6.268;2023-05-14T13:11:24;23.70;72.00
59660;DHT22;45534;52.690;6.268;2023-05-14T13:13:51;23.50;72.60
59660;DHT22;45534;52.690;6.268;2023-05-14T13:16:17;23.20;72.40
59660;DHT22;45534;52.690;6.268;2023-05-14T13:18:42;23.00;72.30
59660;DHT22;45534;52.690;6.268;2023-05-14T13:21:08;23.00;71.00
59660;DHT22;45534;52.690;6.268;2023-05-14T13:23:34;23.10;71.40
59660;DHT22;45534;52.690;6.268;2023-05-14T13:25:59;23.20;73.10
59660;DHT22;45534;52.690;6.268;2023-05-14T13:28:25;23.40;73.00
59660;DHT22;45534;52.690;6.268;2023-05-14T13:31:08;23.40;72.20
59660;DHT22;45534;52.690;6.268;2023-05-14T13:33:35;23.50;70.30
59660;DHT22;45534;52.690;6.268;2023-05-14T13:36:02;23.60;71.00
59660;DHT22;45534;52.690;6.268;2023-05-14T13:38:27;23.70;68.20
59660;DHT22;45534;52.690;6.268;2023-05-14T13:40:53;23.70;71.20
59660;DHT22;45534;52.690;6.268;2023-05-14T13:43:24;23.90;71.70
59660;DHT22;45534;52.690;6.268;2023-05-14T13:45:50;23.90;63.20
59660;DHT22;45534;52.690;6.268;2023-05-14T13:48:15;24.00;66.60
59660;DHT22;45534;52.690;6.268;2023-05-14T13:50:41;24.20;64.80
59660;DHT22;45534;52.690;6.268;2023-05-14T13:53:07;24.30;63.80
59660;DHT22;45534;52.690;6.268;2023-05-14T13:55:32;24.40;64.90
59660;DHT22;45534;52.690;6.268;2023-05-14T13:57:59;24.60;66.20
59660;DHT22;45534;52.690;6.268;2023-05-14T14:00:25;24.80;64.90
59660;DHT22;45534;52.690;6.268;2023-05-14T14:02:52;24.80;60.30
59660;DHT22;45534;52.690;6.268;2023-05-14T14:05:17;24.80;60.60
59660;DHT22;45534;52.690;6.268;2023-05-14T14:07:43;24.80;60.20
59660;DHT22;45534;52.690;6.268;2023-05-14T14:10:09;24.60;60.60
59660;DHT22;45534;52.690;6.268;2023-05-14T14:12:35;24.50;59.70
59660;DHT22;45534;52.690;6.268;2023-05-14T14:15:01;24.40;60.30
59660;DHT22;45534;52.690;6.268;2023-05-14T14:17:28;24.00;59.20
59660;DHT22;45534;52.690;6.268;2023-05-14T14:19:53;23.40;59.00
59660;DHT22;45534;52.690;6.268;2023-05-14T14:22:19;23.30;60.40
59660;DHT22;45534;52.690;6.268;2023-05-14T14:24:45;23.40;60.20
59660;DHT22;45534;52.690;6.268;2023-05-14T14:27:10;23.60;60.00
59660;DHT22;45534;52.690;6.268;2023-05-14T14:29:36;23.70;61.80
59660;DHT22;45534;52.690;6.268;2023-05-14T14:32:02;23.90;61.20
59660;DHT22;45534;52.690;6.268;2023-05-14T14:34:28;23.90;57.50
59660;DHT22;45534;52.690;6.268;2023-05-14T14:36:54;23.60;56.30
59660;DHT22;45534;52.690;6.268;2023-05-14T14:39:20;23.20;54.90
59660;DHT22;45534;52.690;6.268;2023-05-14T14:41:45;22.90;55.80
59660;DHT22;45534;52.690;6.268;2023-05-14T14:44:12;23.00;52.40
59660;DHT22;45534;52.690;6.268;2023-05-14T14:46:37;23.20;50.20
59660;DHT22;45534;52.690;6.268;2023-05-14T14:49:03;23.20;50.20
59660;DHT22;45534;52.690;6.268;2023-05-14T14:51:29;23.20;52.70
59660;DHT22;45534;52.690;6.268;2023-05-14T14:53:55;23.00;50.90
59660;DHT22;45534;52.690;6.268;2023-05-14T14:56:21;23.10;50.70
59660;DHT22;45534;52.690;6.268;2023-05-14T14:58:47;23.30;50.80
59660;DHT22;45534;52.690;6.268;2023-05-14T15:01:12;23.30;50.70
59660;DHT22;45534;52.690;6.268;2023-05-14T15:03:38;23.20;51.00
59660;DHT22;45534;52.690;6.268;2023-05-14T15:06:04;23.20;52.10
59660;DHT22;45534;52.690;6.268;2023-05-14T15:08:30;23.00;50.20
59660;DHT22;45534;52.690;6.268;2023-05-14T15:10:56;23.00;51.00
59660;DHT22;45534;52.690;6.268;2023-05-14T15:13:22;23.10;51.10
59660;DHT22;45534;52.690;6.268;2023-05-14T15:15:49;23.30;51.10
59660;DHT22;45534;52.690;6.268;2023-05-14T15:18:15;23.40;49.10
59660;DHT22;45534;52.690;6.268;2023-05-14T15:20:41;23.40;49.00
59660;DHT22;45534;52.690;6.268;2023-05-14T15:23:06;23.40;49.10
59660;DHT22;45534;52.690;6.268;2023-05-14T15:25:32;23.50;49.00
59660;DHT22;45534;52.690;6.268;2023-05-14T15:27:58;23.50;49.50
59660;DHT22;45534;52.690;6.268;2023-05-14T15:30:24;23.40;50.40
59660;DHT22;45534;52.690;6.268;2023-05-14T15:32:49;23.50;48.40
59660;DHT22;45534;52.690;6.268;2023-05-14T15:35:15;23.50;47.90
59660;DHT22;45534;52.690;6.268;2023-05-14T15:37:44;23.50;47.70
59660;DHT22;45534;52.690;6.268;2023-05-14T15:40:10;23.50;46.50
59660;DHT22;45534;52.690;6.268;2023-05-14T15:42:37;23.40;46.00
59660;DHT22;45534;52.690;6.268;2023-05-14T15:45:07;23.30;44.30